createdAt,value
2022-11-14T00:00:49.098Z,101226.31
2022-11-14T00:03:34.117Z,101225.09
2022-11-14T00:06:19.650Z,101213.47
2022-11-14T00:09:04.714Z,101205.63
2022-11-14T00:11:49.601Z,101197.47
2022-11-14T00:14:34.578Z,101197.56
2022-11-14T00:17:19.800Z,101198.19
2022-11-14T00:20:07.050Z,101188.59
2022-11-14T00:22:52.071Z,101197.63
2022-11-14T00:25:38.145Z,101190.53
2022-11-14T00:28:23.513Z,101187.28
2022-11-14T00:31:10.415Z,101187.22
2022-11-14T00:33:55.507Z,101181.59
2022-11-14T00:36:40.702Z,101186.38
2022-11-14T00:39:25.967Z,101176.09
2022-11-14T00:42:11.263Z,101168.34
2022-11-14T00:44:56.509Z,101161.50
2022-11-14T00:47:41.482Z,101160.34
2022-11-14T00:50:26.408Z,101151.47
2022-11-14T00:53:12.230Z,101148.06
2022-11-14T00:55:57.369Z,101155.78
2022-11-14T00:58:42.502Z,101145.72
2022-11-14T01:01:27.947Z,101149.31
2022-11-14T01:04:13.057Z,101147.56
2022-11-14T01:06:58.065Z,101138.44
2022-11-14T01:09:43.355Z,101134.91
2022-11-14T01:12:28.201Z,101142.66
2022-11-14T01:15:13.662Z,101147.50
2022-11-14T01:17:58.892Z,101145.00
2022-11-14T01:20:46.445Z,101140.06
2022-11-14T01:23:31.450Z,101140.06
2022-11-14T01:26:16.617Z,101139.72
2022-11-14T01:29:02.098Z,101136.09
2022-11-14T01:31:47.145Z,101133.00
2022-11-14T01:34:32.481Z,101126.19
2022-11-14T01:37:17.657Z,101124.69
2022-11-14T01:40:02.726Z,101115.66
2022-11-14T01:43:18.923Z,101120.69
2022-11-14T01:46:04.744Z,101118.78
2022-11-14T01:49:20.563Z,101116.44
2022-11-14T01:52:17.509Z,101106.50
2022-11-14T01:55:06.545Z,101107.91
2022-11-14T01:57:52.063Z,101105.25
2022-11-14T02:00:37.652Z,101095.97
2022-11-14T02:06:15.187Z,101087.72
2022-11-14T02:09:03.510Z,101085.53
2022-11-14T02:11:49.499Z,101076.09
2022-11-14T02:14:37.142Z,101082.66
2022-11-14T02:17:29.641Z,101075.84
2022-11-14T02:20:19.397Z,101070.47
2022-11-14T02:23:04.809Z,101082.72
2022-11-14T02:25:50.008Z,101075.59
2022-11-14T02:28:35.565Z,101074.88
2022-11-14T02:31:20.724Z,101069.00
2022-11-14T02:34:05.740Z,101071.78
2022-11-14T02:36:51.218Z,101076.19
2022-11-14T02:39:36.501Z,101076.97
2022-11-14T02:42:21.625Z,101073.91
2022-11-14T02:45:07.637Z,101071.16
2022-11-14T02:47:53.017Z,101070.91
2022-11-14T02:50:38.240Z,101065.25
2022-11-14T02:53:23.368Z,101062.50
2022-11-14T02:56:08.280Z,101056.28
2022-11-14T02:58:53.819Z,101048.09
2022-11-14T03:01:39.211Z,101056.63
2022-11-14T03:04:24.206Z,101045.72
2022-11-14T03:07:09.224Z,101044.72
2022-11-14T03:09:54.594Z,101046.78
2022-11-14T03:12:40.299Z,101043.56
2022-11-14T03:15:25.222Z,101043.66
2022-11-14T03:18:10.754Z,101042.94
2022-11-14T03:20:56.145Z,101039.19
2022-11-14T03:23:41.329Z,101040.94
2022-11-14T03:26:26.574Z,101029.91
2022-11-14T03:29:11.646Z,101034.50
2022-11-14T03:31:56.849Z,101032.31
2022-11-14T03:34:42.582Z,101036.41
2022-11-14T03:37:27.902Z,101025.53
2022-11-14T03:40:13.205Z,101027.50
2022-11-14T03:42:58.338Z,101030.16
2022-11-14T03:45:44.061Z,101028.09
2022-11-14T03:48:30.282Z,101028.59
2022-11-14T03:51:15.630Z,101027.34
2022-11-14T03:54:00.853Z,101020.06
2022-11-14T03:56:45.763Z,101012.41
2022-11-14T03:59:30.701Z,101013.13
2022-11-14T04:02:15.438Z,101009.91
2022-11-14T04:05:00.465Z,101006.13
2022-11-14T04:07:45.608Z,100995.91
2022-11-14T04:10:30.463Z,100997.41
2022-11-14T04:13:15.767Z,100995.91
2022-11-14T04:16:00.518Z,100985.47
2022-11-14T04:18:45.744Z,100986.28
2022-11-14T04:21:30.936Z,100981.75
2022-11-14T04:24:16.350Z,100978.09
2022-11-14T04:27:01.614Z,100969.44
2022-11-14T04:29:46.886Z,100971.34
2022-11-14T04:32:32.029Z,100980.84
2022-11-14T04:35:17.161Z,100975.50
2022-11-14T04:38:03.328Z,100980.78
2022-11-14T04:40:50.803Z,100965.94
2022-11-14T04:43:35.914Z,100965.00
2022-11-14T04:46:21.301Z,100959.19
2022-11-14T04:49:06.381Z,100955.50
2022-11-14T04:51:51.354Z,100952.06
2022-11-14T04:54:36.454Z,100957.41
2022-11-14T04:57:21.600Z,100954.63
2022-11-14T05:00:07.654Z,100957.31
2022-11-14T05:02:52.746Z,100950.59
2022-11-14T05:05:41.756Z,100943.81
2022-11-14T05:08:27.555Z,100939.66
2022-11-14T05:11:18.045Z,100934.63
2022-11-14T05:14:03.024Z,100933.16
2022-11-14T05:16:48.367Z,100938.47
2022-11-14T05:19:33.525Z,100937.88
2022-11-14T05:22:19.325Z,100943.22
2022-11-14T05:25:05.704Z,100945.16
2022-11-14T05:27:51.226Z,100936.34
2022-11-14T05:30:36.612Z,100926.38
2022-11-14T05:33:21.729Z,100928.75
2022-11-14T05:36:17.185Z,100928.94
2022-11-14T05:39:02.539Z,100941.88
2022-11-14T05:41:47.781Z,100931.13
2022-11-14T05:44:32.737Z,100931.50
2022-11-14T05:47:18.125Z,100927.63
2022-11-14T05:50:04.151Z,100933.66
2022-11-14T05:52:49.179Z,100928.31
2022-11-14T05:55:34.394Z,100924.03
2022-11-14T05:58:19.848Z,100922.75
2022-11-14T06:01:13.871Z,100929.72
2022-11-14T06:03:59.109Z,100924.22
2022-11-14T06:06:44.204Z,100921.47
2022-11-14T06:09:29.922Z,100928.75
2022-11-14T06:12:14.822Z,100927.56
2022-11-14T06:15:00.164Z,100933.66
2022-11-14T06:17:45.632Z,100923.16
2022-11-14T06:20:30.768Z,100909.81
2022-11-14T06:23:19.452Z,100895.50
2022-11-14T06:26:14.704Z,100897.63
2022-11-14T06:29:00.749Z,100908.00
2022-11-14T06:31:45.899Z,100903.00
2022-11-14T06:34:31.058Z,100897.63
2022-11-14T06:37:16.195Z,100903.06
2022-11-14T06:40:01.259Z,100902.88
2022-11-14T06:42:46.082Z,100900.22
2022-11-14T06:45:30.857Z,100892.44
2022-11-14T06:48:15.945Z,100898.03
2022-11-14T06:51:03.147Z,100895.75
2022-11-14T06:53:48.261Z,100899.16
2022-11-14T06:56:33.559Z,100899.50
2022-11-14T06:59:18.851Z,100892.56
2022-11-14T07:02:04.117Z,100898.75
2022-11-14T07:04:49.218Z,100898.03
2022-11-14T07:07:34.442Z,100898.06
2022-11-14T07:10:19.811Z,100897.56
2022-11-14T07:13:05.035Z,100900.84
2022-11-14T07:15:54.138Z,100910.72
2022-11-14T07:18:38.942Z,100899.41
2022-11-14T07:21:25.479Z,100898.31
2022-11-14T07:24:10.865Z,100916.78
2022-11-14T07:26:56.000Z,100913.47
2022-11-14T07:29:41.170Z,100898.97
2022-11-14T07:32:26.057Z,100899.66
2022-11-14T07:35:11.260Z,100899.66
2022-11-14T07:38:03.990Z,100907.78
2022-11-14T07:40:59.517Z,100895.72
2022-11-14T07:43:45.655Z,100902.75
2022-11-14T07:46:30.636Z,100915.31
2022-11-14T07:49:16.144Z,100909.34
2022-11-14T07:52:02.327Z,100915.66
2022-11-14T07:54:47.362Z,100915.63
2022-11-14T07:57:37.056Z,100906.53
2022-11-14T08:00:26.011Z,100912.06
2022-11-14T08:03:11.400Z,100898.91
2022-11-14T08:08:51.957Z,100909.66
2022-11-14T08:11:49.313Z,100917.19
2022-11-14T08:14:34.671Z,100892.44
2022-11-14T08:17:21.734Z,100904.59
2022-11-14T08:20:08.663Z,100901.00
2022-11-14T08:22:54.921Z,100896.25
2022-11-14T08:25:41.667Z,100892.00
2022-11-14T08:28:27.119Z,100901.34
2022-11-14T08:31:13.743Z,100894.25
2022-11-14T08:33:59.019Z,100898.56
2022-11-14T08:36:43.965Z,100891.28
2022-11-14T08:39:29.716Z,100892.69
2022-11-14T08:42:14.890Z,100889.22
2022-11-14T08:44:59.953Z,100881.19
2022-11-14T08:47:51.548Z,100878.41
2022-11-14T08:50:36.562Z,100861.13
2022-11-14T08:53:21.828Z,100869.06
2022-11-14T08:56:07.101Z,100868.38
2022-11-14T08:58:52.046Z,100868.09
2022-11-14T09:01:37.773Z,100867.34
2022-11-14T09:04:23.064Z,100864.19
2022-11-14T09:07:08.578Z,100859.91
2022-11-14T09:09:53.856Z,100860.56
2022-11-14T09:12:38.959Z,100859.41
2022-11-14T09:15:24.696Z,100857.13
2022-11-14T09:18:11.186Z,100848.59
2022-11-14T09:21:03.996Z,100855.53
2022-11-14T09:23:49.372Z,100854.66
2022-11-14T09:26:34.655Z,100844.84
2022-11-14T09:29:19.796Z,100841.69
2022-11-14T09:32:05.168Z,100838.78
2022-11-14T09:34:50.281Z,100836.63
2022-11-14T09:37:35.336Z,100841.56
2022-11-14T09:40:20.646Z,100834.34
2022-11-14T09:43:39.205Z,100826.53
2022-11-14T09:46:53.999Z,100829.63
2022-11-14T09:49:41.742Z,100819.44
2022-11-14T09:52:48.965Z,100806.91
2022-11-14T09:55:37.091Z,100803.00
2022-11-14T09:58:23.307Z,100800.56
2022-11-14T10:01:11.599Z,100790.16
2022-11-14T10:04:09.577Z,100794.50
2022-11-14T10:06:54.717Z,100772.16
2022-11-14T10:10:14.200Z,100766.06
2022-11-14T10:13:34.942Z,100760.75
2022-11-14T10:16:20.152Z,100751.16
2022-11-14T10:19:42.820Z,100749.53
2022-11-14T10:22:46.933Z,100755.56
2022-11-14T10:25:50.796Z,100764.38
2022-11-14T10:29:08.607Z,100769.03
2022-11-14T10:32:27.856Z,100766.75
2022-11-14T10:35:19.238Z,100766.84
2022-11-14T10:38:14.506Z,100776.81
2022-11-14T10:41:04.675Z,100780.25
2022-11-14T10:43:51.841Z,100770.84
2022-11-14T10:46:41.669Z,100773.22
2022-11-14T10:49:31.839Z,100767.72
2022-11-14T10:52:21.538Z,100770.47
2022-11-14T10:55:13.811Z,100764.94
2022-11-14T10:57:59.183Z,100769.88
2022-11-14T11:00:44.299Z,100764.16
2022-11-14T11:03:43.529Z,100766.97
2022-11-14T11:06:29.440Z,100760.91
2022-11-14T11:09:45.500Z,100766.88
2022-11-14T11:12:37.534Z,100758.53
2022-11-14T11:15:26.447Z,100744.50
2022-11-14T11:18:20.688Z,100739.53
2022-11-14T11:21:11.249Z,100739.97
2022-11-14T11:23:57.694Z,100738.09
2022-11-14T11:26:42.694Z,100729.31
2022-11-14T11:29:27.884Z,100731.41
2022-11-14T11:32:26.173Z,100726.13
2022-11-14T11:35:14.101Z,100712.00
2022-11-14T11:38:02.886Z,100721.63
2022-11-14T11:40:54.186Z,100709.56
2022-11-14T11:43:56.715Z,100729.50
2022-11-14T11:47:01.232Z,100725.34
2022-11-14T11:49:54.278Z,100715.78
2022-11-14T11:52:50.196Z,100707.81
2022-11-14T11:55:44.033Z,100705.88
2022-11-14T11:58:47.493Z,100698.59
2022-11-14T12:01:32.365Z,100708.25
2022-11-14T12:04:18.247Z,100717.34
2022-11-14T12:07:17.264Z,100707.88
2022-11-14T12:10:11.391Z,100703.28
2022-11-14T12:13:12.044Z,100703.97
2022-11-14T12:16:13.256Z,100700.41
2022-11-14T12:19:20.316Z,100711.44
2022-11-14T12:22:15.160Z,100711.31
2022-11-14T12:25:38.197Z,100721.47
2022-11-14T12:28:42.035Z,100709.69
2022-11-14T12:31:32.163Z,100707.91
2022-11-14T12:34:20.781Z,100710.38
2022-11-14T12:37:15.458Z,100709.88
2022-11-14T12:40:06.712Z,100706.53
2022-11-14T12:42:52.657Z,100711.25
2022-11-14T12:45:40.607Z,100701.28
2022-11-14T12:48:25.811Z,100697.13
2022-11-14T12:51:26.406Z,100708.44
2022-11-14T12:54:44.637Z,100694.78
2022-11-14T12:57:51.976Z,100707.38
2022-11-14T13:01:01.720Z,100700.31
2022-11-14T13:04:24.816Z,100695.97
2022-11-14T13:07:47.786Z,100695.00
2022-11-14T13:10:38.696Z,100685.72
2022-11-14T13:13:42.276Z,100693.84
2022-11-14T13:16:51.219Z,100688.81
2022-11-14T13:20:04.668Z,100687.97
2022-11-14T13:22:50.015Z,100687.97
2022-11-14T13:25:35.394Z,100687.50
2022-11-14T13:28:38.898Z,100683.50
2022-11-14T13:31:36.132Z,100677.75
2022-11-14T13:34:37.718Z,100671.78
2022-11-14T13:37:44.967Z,100664.69
2022-11-14T13:40:47.059Z,100651.69
2022-11-14T13:43:50.833Z,100643.72
2022-11-14T13:46:54.626Z,100638.81
2022-11-14T13:49:52.431Z,100628.84
2022-11-14T13:52:43.776Z,100635.44
2022-11-14T13:55:53.766Z,100638.97
2022-11-14T13:58:46.850Z,100638.09
2022-11-14T14:01:32.109Z,100637.63
2022-11-14T14:04:34.359Z,100630.25
2022-11-14T14:10:22.483Z,100645.91
2022-11-14T14:13:26.874Z,100637.13
2022-11-14T14:16:40.435Z,100631.97
2022-11-14T14:19:39.232Z,100633.06
2022-11-14T14:22:39.541Z,100626.34
2022-11-14T14:25:38.560Z,100615.75
2022-11-14T14:28:36.239Z,100615.09
2022-11-14T14:31:23.477Z,100619.56
2022-11-14T14:34:28.511Z,100618.84
2022-11-14T14:37:25.955Z,100621.06
2022-11-14T14:40:24.926Z,100616.75
2022-11-14T14:43:22.115Z,100619.97
2022-11-14T14:46:07.780Z,100625.09
2022-11-14T14:48:55.588Z,100619.69
2022-11-14T14:51:42.842Z,100631.75
2022-11-14T14:54:32.321Z,100631.34
2022-11-14T14:57:23.015Z,100612.25
2022-11-14T15:00:21.894Z,100606.09
2022-11-14T15:03:10.313Z,100598.69
2022-11-14T15:06:00.475Z,100596.78
2022-11-14T15:08:46.493Z,100609.00
2022-11-14T15:11:32.942Z,100609.75
2022-11-14T15:14:23.315Z,100598.66
2022-11-14T15:17:10.467Z,100590.78
2022-11-14T15:19:55.656Z,100588.34
2022-11-14T15:22:41.388Z,100594.81
2022-11-14T15:25:26.641Z,100590.34
2022-11-14T15:28:23.615Z,100579.59
2022-11-14T15:31:22.459Z,100589.97
2022-11-14T15:34:32.300Z,100588.84
2022-11-14T15:37:17.257Z,100584.91
2022-11-14T15:40:22.725Z,100585.25
2022-11-14T15:43:45.317Z,100588.03
2022-11-14T15:46:33.339Z,100597.16
2022-11-14T15:49:23.656Z,100599.88
2022-11-14T15:52:19.717Z,100588.22
2022-11-14T15:55:12.429Z,100585.50
2022-11-14T15:58:26.057Z,100577.75
2022-11-14T16:01:03.405Z,100582.09
2022-11-14T16:03:51.555Z,100582.84
2022-11-14T16:06:36.977Z,100581.81
2022-11-14T16:09:22.255Z,100571.75
2022-11-14T16:12:07.862Z,100573.59
2022-11-14T16:14:52.924Z,100566.09
2022-11-14T16:17:40.325Z,100559.94
2022-11-14T16:20:28.245Z,100554.44
2022-11-14T16:23:13.999Z,100557.44
2022-11-14T16:25:59.137Z,100559.44
2022-11-14T16:28:44.341Z,100559.91
2022-11-14T16:31:29.661Z,100566.97
2022-11-14T16:34:26.316Z,100572.63
2022-11-14T16:37:13.214Z,100572.63
2022-11-14T16:39:58.401Z,100574.63
2022-11-14T16:42:43.652Z,100565.38
2022-11-14T16:45:28.820Z,100567.16
2022-11-14T16:48:14.042Z,100567.25
2022-11-14T16:51:14.827Z,100566.22
2022-11-14T16:54:13.438Z,100562.06
2022-11-14T16:56:58.586Z,100569.69
2022-11-14T16:59:43.671Z,100571.66
2022-11-14T17:02:28.834Z,100566.97
2022-11-14T17:05:14.301Z,100561.53
2022-11-14T17:07:59.632Z,100563.63
2022-11-14T17:10:46.408Z,100561.53
2022-11-14T17:13:32.114Z,100560.94
2022-11-14T17:16:17.806Z,100555.03
2022-11-14T17:19:02.973Z,100556.97
2022-11-14T17:21:48.183Z,100556.84
2022-11-14T17:24:33.452Z,100565.03
2022-11-14T17:27:18.574Z,100554.03
2022-11-14T17:30:03.872Z,100540.75
2022-11-14T17:32:53.742Z,100534.88
2022-11-14T17:35:41.254Z,100534.72
2022-11-14T17:38:26.449Z,100537.59
2022-11-14T17:41:11.414Z,100523.03
2022-11-14T17:43:58.832Z,100525.38
2022-11-14T17:46:44.109Z,100516.81
2022-11-14T17:49:29.130Z,100525.28
2022-11-14T17:52:14.473Z,100523.22
2022-11-14T17:54:59.609Z,100512.84
2022-11-14T17:57:44.903Z,100513.97
2022-11-14T18:00:29.885Z,100511.97
2022-11-14T18:03:15.180Z,100522.66
2022-11-14T18:06:17.094Z,100517.03
2022-11-14T18:09:05.072Z,100518.28
2022-11-14T18:11:50.374Z,100519.44
2022-11-14T18:14:35.782Z,100528.91
2022-11-14T18:17:21.185Z,100530.78
2022-11-14T18:20:07.278Z,100530.69
2022-11-14T18:22:52.311Z,100527.88
2022-11-14T18:25:37.452Z,100522.22
2022-11-14T18:28:22.840Z,100529.31
2022-11-14T18:31:11.018Z,100520.75
2022-11-14T18:33:56.594Z,100522.31
2022-11-14T18:36:41.473Z,100513.25
2022-11-14T18:39:28.964Z,100502.69
2022-11-14T18:42:14.377Z,100510.16
2022-11-14T18:44:59.205Z,100502.56
2022-11-14T18:47:44.282Z,100501.66
2022-11-14T18:50:31.058Z,100498.22
2022-11-14T18:53:16.141Z,100495.00
2022-11-14T18:56:12.806Z,100500.97
2022-11-14T18:58:58.461Z,100504.03
2022-11-14T19:01:44.147Z,100506.59
2022-11-14T19:04:29.560Z,100488.69
2022-11-14T19:07:15.355Z,100494.19
2022-11-14T19:10:00.629Z,100496.84
2022-11-14T19:12:48.941Z,100493.91
2022-11-14T19:15:34.176Z,100494.53
2022-11-14T19:18:19.218Z,100484.44
2022-11-14T19:21:04.624Z,100487.88
2022-11-14T19:23:50.587Z,100480.09
2022-11-14T19:26:36.136Z,100477.78
2022-11-14T19:29:21.443Z,100476.53
2022-11-14T19:32:07.293Z,100485.25
2022-11-14T19:34:52.281Z,100473.72
2022-11-14T19:37:37.478Z,100480.28
2022-11-14T19:40:22.765Z,100475.38
2022-11-14T19:43:10.745Z,100473.56
2022-11-14T19:46:00.750Z,100466.13
2022-11-14T19:48:46.192Z,100471.84
2022-11-14T19:51:32.866Z,100467.66
2022-11-14T19:54:18.509Z,100465.81
2022-11-14T19:57:03.760Z,100467.53
2022-11-14T19:59:49.088Z,100447.50
2022-11-14T20:02:34.315Z,100434.47
2022-11-14T20:05:19.623Z,100440.97
2022-11-14T20:08:04.866Z,100437.56
2022-11-14T20:13:42.089Z,100427.88
2022-11-14T20:16:30.000Z,100432.03
2022-11-14T20:19:16.191Z,100440.84
2022-11-14T20:22:01.657Z,100442.13
2022-11-14T20:24:46.986Z,100434.91
2022-11-14T20:27:32.189Z,100441.81
2022-11-14T20:30:17.604Z,100443.41
2022-11-14T20:33:02.825Z,100438.34
2022-11-14T20:35:48.059Z,100435.81
2022-11-14T20:38:33.396Z,100438.66
2022-11-14T20:41:20.065Z,100426.50
2022-11-14T20:44:05.142Z,100429.41
2022-11-14T20:46:50.384Z,100422.31
2022-11-14T20:49:35.713Z,100422.16
2022-11-14T20:52:21.104Z,100422.78
2022-11-14T20:55:11.634Z,100420.84
2022-11-14T20:57:57.207Z,100416.97
2022-11-14T21:00:42.300Z,100422.03
2022-11-14T21:03:28.333Z,100415.66
2022-11-14T21:06:15.581Z,100411.84
2022-11-14T21:09:00.801Z,100419.50
2022-11-14T21:11:46.056Z,100407.38
2022-11-14T21:14:31.275Z,100404.16
2022-11-14T21:17:16.345Z,100396.09
2022-11-14T21:20:01.749Z,100400.38
2022-11-14T21:22:46.948Z,100396.03
2022-11-14T21:25:32.289Z,100390.28
2022-11-14T21:28:17.337Z,100396.28
2022-11-14T21:31:13.624Z,100387.13
2022-11-14T21:34:00.183Z,100392.13
2022-11-14T21:36:46.961Z,100385.53
2022-11-14T21:39:32.372Z,100390.56
2022-11-14T21:42:18.739Z,100383.50
2022-11-14T21:45:04.352Z,100392.47
2022-11-14T21:47:49.751Z,100392.00
2022-11-14T21:50:35.045Z,100392.00
2022-11-14T21:53:20.549Z,100389.75
2022-11-14T21:56:22.209Z,100386.84
2022-11-14T21:59:13.878Z,100387.13
2022-11-14T22:02:18.301Z,100386.94
2022-11-14T22:05:03.833Z,100381.78
2022-11-14T22:07:48.709Z,100393.03
2022-11-14T22:10:33.688Z,100388.47
2022-11-14T22:13:18.920Z,100385.84
2022-11-14T22:16:05.627Z,100386.41
2022-11-14T22:18:57.167Z,100376.59
2022-11-14T22:21:46.316Z,100371.44
2022-11-14T22:24:31.317Z,100370.00
2022-11-14T22:27:16.484Z,100366.06
2022-11-14T22:30:01.643Z,100375.09
2022-11-14T22:32:46.856Z,100375.28
2022-11-14T22:35:35.343Z,100376.84
2022-11-14T22:38:20.826Z,100384.88
2022-11-14T22:41:10.916Z,100385.00
2022-11-14T22:43:56.700Z,100384.78
2022-11-14T22:46:41.574Z,100371.66
2022-11-14T22:49:26.777Z,100386.59
2022-11-14T22:52:12.047Z,100384.72
2022-11-14T22:54:57.116Z,100374.78
2022-11-14T22:57:42.270Z,100386.28
2022-11-14T23:00:27.287Z,100373.72
2022-11-14T23:03:17.578Z,100383.50
2022-11-14T23:06:10.672Z,100373.72
2022-11-14T23:08:55.997Z,100370.28
2022-11-14T23:11:41.175Z,100380.38
2022-11-14T23:14:26.277Z,100375.09
2022-11-14T23:17:11.738Z,100378.66
2022-11-14T23:19:57.516Z,100369.31
2022-11-14T23:22:42.714Z,100374.44
2022-11-14T23:25:27.881Z,100374.13
2022-11-14T23:28:13.352Z,100356.19
2022-11-14T23:30:59.579Z,100366.06
2022-11-14T23:33:53.156Z,100369.44
2022-11-14T23:36:38.419Z,100365.06
2022-11-14T23:39:23.698Z,100359.22
2022-11-14T23:42:08.865Z,100350.81
2022-11-14T23:44:54.419Z,100345.03
2022-11-14T23:47:39.752Z,100344.44
2022-11-14T23:50:25.095Z,100344.34
2022-11-14T23:53:11.268Z,100340.78
2022-11-14T23:56:00.841Z,100344.03
2022-11-14T23:58:45.956Z,100341.50
